Time;durP1;ratioP1;P1;durP2;ratioP2;P2;SDS_P1;SDS_P2;PMS_P1;PMS_P2;Temp;Humidity;BMP_temperature;BMP_pressure;BME280_temperature;BME280_humidity;BME280_pressure;Samples;Min_cycle;Max_cycle;Signal;HPM_P1;HPM_P2
2022/07/17 00:01:29;;;;;;;5.83;1.70;;;12.90;99.90;;;;;;5028501;28;20218;-73
2022/07/17 00:04:14;;;;;;;4.07;1.50;;;12.90;99.90;;;;;;5023396;28;20229;-72
2022/07/17 00:06:58;;;;;;;3.37;1.43;;;12.90;99.90;;;;;;5027407;28;20616;-72
2022/07/17 00:09:42;;;;;;;5.90;1.57;;;12.80;99.90;;;;;;5027110;28;20254;-73
2022/07/17 00:12:26;;;;;;;2.60;1.50;;;12.70;99.90;;;;;;5022409;28;20223;-72
2022/07/17 00:15:10;;;;;;;2.87;1.90;;;12.70;99.90;;;;;;5023331;28;20250;-72
2022/07/17 00:17:55;;;;;;;1.40;1.10;;;12.70;99.90;;;;;;5029286;28;20307;-72
2022/07/17 00:20:39;;;;;;;2.57;1.73;;;12.60;99.90;;;;;;5028077;28;20751;-72
2022/07/17 00:23:23;;;;;;;2.30;1.30;;;12.60;99.90;;;;;;5009737;28;20183;-72
2022/07/17 00:26:08;;;;;;;5.10;1.53;;;12.60;99.90;;;;;;5028986;28;20694;-71
2022/07/17 00:28:52;;;;;;;4.20;1.63;;;12.60;99.90;;;;;;5026388;28;20210;-71
2022/07/17 00:31:36;;;;;;;3.03;1.30;;;12.50;99.90;;;;;;5026869;28;20195;-72
2022/07/17 00:34:20;;;;;;;4.37;1.40;;;12.40;99.90;;;;;;5023628;28;20683;-72
2022/07/17 00:37:04;;;;;;;7.50;1.90;;;12.30;99.90;;;;;;5027499;28;20222;-72
2022/07/17 00:39:48;;;;;;;6.07;1.90;;;12.20;99.90;;;;;;5024162;28;20182;-73
2022/07/17 00:42:32;;;;;;;4.93;1.80;;;12.20;99.90;;;;;;5029397;28;20182;-72
2022/07/17 00:45:16;;;;;;;4.13;1.53;;;12.10;99.90;;;;;;5024544;28;20195;-72
2022/07/17 00:48:05;;;;;;;2.17;1.60;;;12.10;99.90;;;;;;5023636;28;20233;-72
2022/07/17 00:50:50;;;;;;;3.30;1.57;;;12.10;99.90;;;;;;5027658;28;20191;-73
2022/07/17 00:53:35;;;;;;;5.60;2.20;;;12.10;99.90;;;;;;5016238;28;20411;-72
2022/07/17 00:56:22;;;;;;;4.57;2.10;;;12.10;99.90;;;;;;5026058;28;20774;-72
2022/07/17 00:59:06;;;;;;;5.78;2.20;;;12.20;99.90;;;;;;5022671;28;20461;-71
2022/07/17 01:01:51;;;;;;;3.97;2.10;;;12.20;99.90;;;;;;5020934;28;20411;-72
2022/07/17 01:04:36;;;;;;;6.65;2.30;;;12.10;99.90;;;;;;5022570;28;20453;-72
2022/07/17 01:07:20;;;;;;;6.10;2.28;;;12.10;99.90;;;;;;5031224;28;20417;-71
2022/07/17 01:10:04;;;;;;;6.32;2.50;;;12.10;99.90;;;;;;5029112;28;20464;-72
2022/07/17 01:12:48;;;;;;;5.32;2.50;;;12.10;99.90;;;;;;5028005;28;20418;-73
2022/07/17 01:15:37;;;;;;;5.65;2.30;;;12.10;99.90;;;;;;5023426;28;20407;-73
2022/07/17 01:18:22;;;;;;;5.30;2.60;;;12.00;99.90;;;;;;5027508;28;20475;-72
2022/07/17 01:21:07;;;;;;;6.05;2.22;;;11.90;99.90;;;;;;5029706;28;20477;-72
2022/07/17 01:23:52;;;;;;;7.22;2.42;;;11.90;99.90;;;;;;5022667;28;20525;-73
2022/07/17 01:26:36;;;;;;;5.03;2.00;;;11.90;99.90;;;;;;5025712;28;20464;-72
2022/07/17 01:29:20;;;;;;;7.82;2.50;;;11.90;99.90;;;;;;5021806;28;20445;-72
2022/07/17 01:32:04;;;;;;;6.20;2.30;;;12.00;99.90;;;;;;5028727;28;20410;-74
2022/07/17 01:34:49;;;;;;;3.88;2.40;;;12.00;99.90;;;;;;5022905;28;20431;-73
2022/07/17 01:37:33;;;;;;;4.00;2.30;;;12.00;99.90;;;;;;5023208;28;20468;-72
2022/07/17 01:40:18;;;;;;;6.82;2.42;;;12.00;99.90;;;;;;5025227;28;20409;-72
2022/07/17 01:43:02;;;;;;;7.30;2.37;;;12.00;99.90;;;;;;5028752;28;20434;-72
2022/07/17 01:45:46;;;;;;;6.57;2.72;;;12.00;99.90;;;;;;5023789;28;20403;-74
2022/07/17 01:48:30;;;;;;;7.25;2.58;;;12.00;99.90;;;;;;5028534;28;20504;-71
2022/07/17 01:51:14;;;;;;;5.35;2.42;;;11.90;99.90;;;;;;5026323;28;20436;-72
2022/07/17 01:53:58;;;;;;;4.25;2.40;;;11.80;99.90;;;;;;5018918;28;20423;-73
2022/07/17 01:56:42;;;;;;;4.60;2.47;;;11.80;99.90;;;;;;5031465;28;20406;-72
2022/07/17 01:59:26;;;;;;;6.53;2.60;;;11.70;99.90;;;;;;5030677;28;20435;-72
2022/07/17 02:02:11;;;;;;;5.10;2.90;;;11.80;99.90;;;;;;5027062;28;20550;-72
2022/07/17 02:04:55;;;;;;;4.68;2.40;;;11.80;99.90;;;;;;5027861;28;20435;-73
2022/07/17 02:07:40;;;;;;;5.07;2.50;;;11.80;99.90;;;;;;5021945;28;20411;-72
2022/07/17 02:10:24;;;;;;;6.20;2.45;;;11.80;99.90;;;;;;5024477;28;20476;-72
2022/07/17 02:13:09;;;;;;;5.25;2.60;;;11.80;99.90;;;;;;5033674;28;20823;-72
2022/07/17 02:15:53;;;;;;;6.20;2.65;;;11.80;99.90;;;;;;5028525;28;20418;-72
2022/07/17 02:18:36;;;;;;;6.53;2.58;;;11.80;99.90;;;;;;5011394;28;20434;-73
2022/07/17 02:21:21;;;;;;;4.80;2.70;;;11.80;99.90;;;;;;5022657;28;20570;-71
2022/07/17 02:24:05;;;;;;;7.53;2.97;;;11.70;99.90;;;;;;5031629;28;20413;-72
2022/07/17 02:26:49;;;;;;;5.33;2.93;;;11.70;99.90;;;;;;5025204;28;20910;-73
2022/07/17 02:29:33;;;;;;;7.37;2.70;;;11.70;99.90;;;;;;5025661;28;20810;-72
2022/07/17 02:32:17;;;;;;;7.03;2.90;;;11.70;99.90;;;;;;5025042;28;20453;-72
2022/07/17 02:35:02;;;;;;;5.63;2.90;;;11.70;99.90;;;;;;5029546;28;20976;-72
2022/07/17 02:37:46;;;;;;;5.53;2.67;;;11.70;99.90;;;;;;5018912;28;20495;-72
2022/07/17 02:40:30;;;;;;;6.43;2.90;;;11.70;99.90;;;;;;5026670;28;20903;-72
2022/07/17 02:43:14;;;;;;;9.20;3.00;;;11.70;99.90;;;;;;5024161;28;20466;-72
2022/07/17 02:46:00;;;;;;;7.25;2.78;;;11.70;99.90;;;;;;5030036;28;20478;-73
2022/07/17 02:48:44;;;;;;;5.03;2.80;;;11.60;99.90;;;;;;5022670;28;20402;-71
2022/07/17 02:51:28;;;;;;;7.28;2.53;;;11.60;99.90;;;;;;5029138;28;20805;-71
2022/07/17 02:54:12;;;;;;;5.90;2.83;;;11.60;99.90;;;;;;5027433;28;20399;-72
2022/07/17 02:56:56;;;;;;;6.10;3.17;;;11.60;99.90;;;;;;5018802;28;20427;-73
2022/07/17 02:59:41;;;;;;;5.35;2.92;;;11.60;99.90;;;;;;5019732;28;20838;-72
2022/07/17 03:02:25;;;;;;;6.32;2.83;;;11.50;99.90;;;;;;5025850;28;20414;-72
2022/07/17 03:05:10;;;;;;;4.38;2.65;;;11.50;99.90;;;;;;5028439;28;20497;-72
2022/07/17 03:07:54;;;;;;;5.30;2.88;;;11.40;99.90;;;;;;5026389;28;20457;-72
2022/07/17 03:10:39;;;;;;;4.15;2.80;;;11.40;99.90;;;;;;5024333;28;20446;-71
2022/07/17 03:13:23;;;;;;;4.47;2.92;;;11.40;99.90;;;;;;5027965;28;20404;-71
2022/07/17 03:16:08;;;;;;;5.00;3.10;;;11.50;99.90;;;;;;5024640;28;20457;-73
2022/07/17 03:18:52;;;;;;;5.43;2.92;;;11.50;99.90;;;;;;5026998;28;20420;-71
2022/07/17 03:21:36;;;;;;;7.93;3.30;;;11.40;99.90;;;;;;5029509;28;20900;-72
2022/07/17 03:24:20;;;;;;;6.70;3.10;;;11.40;99.90;;;;;;5030550;28;20424;-71
2022/07/17 03:27:04;;;;;;;4.90;3.15;;;11.40;99.90;;;;;;5025304;28;20412;-71
2022/07/17 03:29:48;;;;;;;10.35;3.80;;;11.40;99.90;;;;;;5026227;28;20406;-72
2022/07/17 03:32:32;;;;;;;8.30;3.10;;;11.30;99.90;;;;;;5027386;28;20485;-71
2022/07/17 03:35:16;;;;;;;5.97;3.17;;;11.30;99.90;;;;;;5023620;28;20505;-72
2022/07/17 03:38:00;;;;;;;8.00;3.22;;;11.30;99.90;;;;;;5024096;28;20437;-72
2022/07/17 03:40:44;;;;;;;10.38;3.45;;;11.30;99.90;;;;;;5030648;28;20457;-72
2022/07/17 03:43:28;;;;;;;6.78;3.13;;;11.30;99.90;;;;;;5023474;28;20409;-72
2022/07/17 03:46:13;;;;;;;4.50;3.08;;;11.30;99.90;;;;;;5022500;28;20397;-71
2022/07/17 03:48:57;;;;;;;7.40;2.97;;;11.20;99.90;;;;;;5025101;28;20419;-72
2022/07/17 03:51:41;;;;;;;6.97;2.80;;;11.20;99.90;;;;;;5023798;28;20413;-72
2022/07/17 03:54:26;;;;;;;7.43;3.05;;;11.30;99.90;;;;;;5022499;28;20548;-71
2022/07/17 03:57:10;;;;;;;6.38;3.28;;;11.20;99.90;;;;;;5017313;28;20432;-71
2022/07/17 03:59:54;;;;;;;7.30;3.40;;;11.20;99.90;;;;;;5027296;28;20418;-71
2022/07/17 04:02:38;;;;;;;5.38;3.28;;;11.20;99.90;;;;;;5026255;28;20420;-71
2022/07/17 04:05:22;;;;;;;6.10;3.33;;;11.20;99.90;;;;;;5025887;28;20399;-71
2022/07/17 04:08:06;;;;;;;8.90;3.65;;;11.10;99.90;;;;;;5023448;28;20433;-72
2022/07/17 04:10:51;;;;;;;8.13;3.70;;;11.10;99.90;;;;;;5020579;28;20412;-72
2022/07/17 04:13:35;;;;;;;6.57;3.97;;;11.00;99.90;;;;;;5026334;28;20414;-72
2022/07/17 04:16:19;;;;;;;5.28;3.38;;;11.00;99.90;;;;;;5020057;28;20952;-71
2022/07/17 04:19:03;;;;;;;6.75;3.35;;;11.00;99.90;;;;;;5025340;28;20553;-73
2022/07/17 04:21:47;;;;;;;5.85;3.60;;;11.00;99.90;;;;;;5027895;28;20474;-72
2022/07/17 04:24:31;;;;;;;6.93;3.65;;;11.00;99.90;;;;;;5025799;28;20422;-72
2022/07/17 04:27:16;;;;;;;6.00;3.50;;;11.00;99.90;;;;;;5027869;28;20406;-71
2022/07/17 04:30:00;;;;;;;7.07;3.40;;;11.10;99.90;;;;;;5017578;28;20433;-72
2022/07/17 04:32:44;;;;;;;6.22;3.70;;;11.20;99.90;;;;;;5024933;28;20490;-71
2022/07/17 04:35:29;;;;;;;8.25;3.65;;;11.20;99.90;;;;;;5026303;28;20491;-73
2022/07/17 04:38:13;;;;;;;4.82;3.53;;;11.20;99.90;;;;;;5022311;28;20416;-72
2022/07/17 04:40:57;;;;;;;7.63;3.80;;;11.20;99.90;;;;;;5024347;28;20402;-71
2022/07/17 04:43:42;;;;;;;7.93;3.60;;;11.20;99.90;;;;;;5029012;28;20399;-73
2022/07/17 04:46:25;;;;;;;8.13;3.90;;;11.20;99.90;;;;;;5016779;28;20429;-72
2022/07/17 04:49:10;;;;;;;5.13;3.53;;;11.20;99.90;;;;;;5017053;28;20413;-72
2022/07/17 04:51:55;;;;;;;9.20;4.35;;;11.30;99.90;;;;;;5022998;28;20449;-71
2022/07/17 04:54:39;;;;;;;8.15;4.15;;;11.30;99.90;;;;;;5023826;28;20415;-71
2022/07/17 04:57:23;;;;;;;7.47;4.00;;;11.30;99.90;;;;;;5019661;28;20475;-71
2022/07/17 05:00:09;;;;;;;8.18;4.10;;;11.40;99.90;;;;;;5016556;28;20451;-72
2022/07/17 05:02:54;;;;;;;5.88;3.90;;;11.40;99.90;;;;;;5023309;28;20428;-72
2022/07/17 05:05:40;;;;;;;8.47;4.03;;;11.40;99.90;;;;;;5024436;28;20451;-71
2022/07/17 05:08:24;;;;;;;10.48;4.07;;;11.40;99.90;;;;;;5027893;28;20804;-70
2022/07/17 05:11:09;;;;;;;9.00;4.28;;;11.50;99.90;;;;;;5027366;28;20393;-72
2022/07/17 05:13:53;;;;;;;7.70;4.10;;;11.50;99.90;;;;;;5033707;28;20946;-70
2022/07/17 05:16:36;;;;;;;7.05;4.00;;;11.60;99.90;;;;;;5027000;28;20467;-73
2022/07/17 05:19:21;;;;;;;9.40;4.22;;;11.60;99.90;;;;;;5022900;28;20782;-71
2022/07/17 05:22:05;;;;;;;7.60;4.10;;;11.60;99.90;;;;;;5027791;28;20395;-71
2022/07/17 05:24:49;;;;;;;8.75;4.40;;;11.60;99.90;;;;;;5025173;28;20395;-73
2022/07/17 05:27:33;;;;;;;10.15;4.45;;;11.70;99.90;;;;;;5025674;28;20500;-71
2022/07/17 05:30:17;;;;;;;9.90;4.68;;;11.70;99.90;;;;;;5023940;28;20449;-72
2022/07/17 05:33:02;;;;;;;7.07;4.17;;;11.70;99.90;;;;;;5028500;28;20559;-72
2022/07/17 05:35:46;;;;;;;10.05;4.20;;;11.80;99.90;;;;;;5020495;28;20482;-72
2022/07/17 05:38:30;;;;;;;8.93;4.03;;;11.90;99.90;;;;;;5033975;28;20463;-72
2022/07/17 05:41:14;;;;;;;10.70;4.22;;;11.90;99.90;;;;;;5027199;28;20404;-71
2022/07/17 05:43:58;;;;;;;11.63;4.80;;;12.00;99.90;;;;;;5028090;28;20382;-72
2022/07/17 05:46:42;;;;;;;10.50;4.40;;;12.10;99.90;;;;;;5021190;28;20399;-73
2022/07/17 05:49:26;;;;;;;13.93;4.28;;;12.10;99.90;;;;;;5025687;28;20410;-71
2022/07/17 05:52:10;;;;;;;8.15;4.20;;;12.20;99.90;;;;;;5029160;28;20437;-70
2022/07/17 05:54:54;;;;;;;9.07;4.55;;;12.30;99.90;;;;;;5028776;28;20422;-71
2022/07/17 05:57:37;;;;;;;9.45;4.25;;;12.30;99.90;;;;;;5022413;28;20998;-72
2022/07/17 06:00:22;;;;;;;9.05;4.15;;;12.40;99.90;;;;;;5023796;28;20434;-73
2022/07/17 06:03:06;;;;;;;9.38;4.50;;;12.50;99.90;;;;;;5021904;28;20421;-71
2022/07/17 06:05:51;;;;;;;7.00;4.05;;;12.60;99.90;;;;;;5029770;28;20434;-73
2022/07/17 06:08:35;;;;;;;6.20;3.92;;;12.70;99.90;;;;;;5030245;28;20414;-72
2022/07/17 06:11:19;;;;;;;5.75;4.00;;;12.80;99.90;;;;;;5030050;28;20459;-71
2022/07/17 06:14:03;;;;;;;9.45;4.30;;;12.90;99.90;;;;;;5029208;28;20449;-73
2022/07/17 06:16:47;;;;;;;8.18;4.35;;;13.00;99.90;;;;;;5027149;28;20453;-73
2022/07/17 06:19:31;;;;;;;8.80;4.10;;;13.10;99.90;;;;;;5020768;28;20484;-72
2022/07/17 06:22:15;;;;;;;9.02;4.10;;;13.20;99.90;;;;;;5027421;28;20515;-73
2022/07/17 06:24:59;;;;;;;8.77;3.78;;;13.40;99.90;;;;;;5025324;28;20402;-72
2022/07/17 06:27:43;;;;;;;7.80;2.93;;;13.50;99.90;;;;;;5022173;28;20291;-73
2022/07/17 06:30:27;;;;;;;6.17;3.30;;;13.50;99.90;;;;;;5024144;28;20196;-72
2022/07/17 06:33:11;;;;;;;6.60;2.90;;;13.60;99.90;;;;;;5028542;28;20338;-72
2022/07/17 06:35:55;;;;;;;8.43;3.20;;;13.70;99.90;;;;;;5031254;28;20227;-72
2022/07/17 06:38:39;;;;;;;6.97;3.17;;;13.80;99.90;;;;;;5026216;28;20302;-72
2022/07/17 06:41:24;;;;;;;7.17;2.53;;;13.90;99.90;;;;;;5026486;28;20180;-72
2022/07/17 06:44:07;;;;;;;7.10;2.90;;;14.00;99.90;;;;;;5022822;28;20657;-73
2022/07/17 06:46:51;;;;;;;9.03;2.97;;;14.10;99.90;;;;;;5026009;28;20743;-72
2022/07/17 06:49:36;;;;;;;7.67;2.73;;;14.20;99.90;;;;;;5028852;28;20674;-72
2022/07/17 06:52:20;;;;;;;7.73;2.00;;;14.30;99.90;;;;;;5028052;28;20718;-73
2022/07/17 06:55:04;;;;;;;7.43;2.60;;;14.40;99.90;;;;;;5027349;28;20223;-72
2022/07/17 06:57:49;;;;;;;7.80;2.43;;;14.40;99.90;;;;;;5028370;28;20287;-72
2022/07/17 07:00:33;;;;;;;11.57;2.30;;;14.50;99.90;;;;;;5026208;28;20195;-73
2022/07/17 07:03:17;;;;;;;5.87;2.03;;;14.60;99.90;;;;;;5029458;28;20187;-72
2022/07/17 07:06:01;;;;;;;10.50;2.23;;;14.70;99.90;;;;;;5031026;28;20302;-72
2022/07/17 07:08:45;;;;;;;5.50;1.73;;;14.80;99.90;;;;;;5029239;28;20675;-71
2022/07/17 07:11:29;;;;;;;7.67;1.80;;;14.90;99.90;;;;;;5035984;28;20619;-72
2022/07/17 07:14:13;;;;;;;4.40;2.17;;;14.90;99.90;;;;;;5032382;28;20186;-73
2022/07/17 07:16:57;;;;;;;7.83;2.20;;;15.00;99.90;;;;;;5019365;28;20235;-73
2022/07/17 07:19:41;;;;;;;2.97;1.90;;;15.10;99.90;;;;;;5026409;28;20195;-73
2022/07/17 07:22:25;;;;;;;6.73;2.00;;;15.20;99.90;;;;;;5030363;28;20182;-73
2022/07/17 07:25:09;;;;;;;6.70;2.30;;;15.20;99.90;;;;;;5029378;28;20242;-72
2022/07/17 07:27:53;;;;;;;4.13;2.30;;;15.20;99.90;;;;;;5026261;28;20219;-71
2022/07/17 07:30:38;;;;;;;5.17;1.90;;;15.30;99.90;;;;;;5026791;28;20253;-74
2022/07/17 07:33:22;;;;;;;8.43;1.97;;;15.40;99.90;;;;;;5026615;28;20187;-73
2022/07/17 07:36:06;;;;;;;8.83;1.60;;;15.50;99.90;;;;;;5017660;28;20305;-74
2022/07/17 07:38:50;;;;;;;8.97;2.07;;;15.60;99.90;;;;;;5027284;28;20206;-73
2022/07/17 07:41:34;;;;;;;4.77;1.90;;;15.60;99.90;;;;;;5034415;28;20286;-73
2022/07/17 07:44:18;;;;;;;9.27;2.10;;;15.70;99.90;;;;;;5027065;28;20249;-73
2022/07/17 07:47:03;;;;;;;6.90;1.85;;;15.80;99.90;;;;;;5022957;28;20450;-73
2022/07/17 07:49:47;;;;;;;9.07;2.13;;;15.90;99.90;;;;;;5022179;28;20239;-74
2022/07/17 07:52:31;;;;;;;5.10;1.43;;;16.00;99.90;;;;;;5025981;28;20234;-74
2022/07/17 07:55:16;;;;;;;7.53;1.40;;;16.00;99.90;;;;;;5016926;28;20186;-73
2022/07/17 07:58:12;;;;;;;5.87;1.60;;;16.20;99.90;;;;;;5029962;28;20255;-78
2022/07/17 08:00:56;;;;;;;5.47;1.10;;;16.30;99.90;;;;;;5024585;28;20258;-76
2022/07/17 08:03:40;;;;;;;7.00;1.10;;;16.30;99.90;;;;;;5028020;28;20231;-75
2022/07/17 08:06:24;;;;;;;4.30;1.40;;;16.40;99.90;;;;;;5025410;28;20250;-79
2022/07/17 08:09:08;;;;;;;6.60;1.47;;;16.50;99.90;;;;;;5029642;28;20786;-78
2022/07/17 08:11:52;;;;;;;8.40;1.73;;;16.50;99.90;;;;;;5027533;28;20191;-78
2022/07/17 08:14:36;;;;;;;5.40;1.47;;;16.60;99.90;;;;;;5041335;28;20240;-78
2022/07/17 08:17:20;;;;;;;2.83;1.37;;;16.70;99.90;;;;;;5015666;28;20254;-76
2022/07/17 08:20:05;;;;;;;5.63;1.40;;;16.70;99.90;;;;;;5028754;28;20675;-76
2022/07/17 08:22:50;;;;;;;4.93;1.40;;;16.70;99.90;;;;;;5025841;28;20187;-78
2022/07/17 08:25:34;;;;;;;2.47;1.13;;;16.80;99.90;;;;;;5027553;28;20191;-77
2022/07/17 08:28:19;;;;;;;4.37;1.30;;;16.90;99.90;;;;;;5017032;28;20590;-76
2022/07/17 08:31:03;;;;;;;7.07;1.40;;;17.10;99.90;;;;;;5021970;28;20224;-76
2022/07/17 08:33:47;;;;;;;5.63;1.73;;;17.20;99.90;;;;;;5027305;28;20227;-78
2022/07/17 08:36:31;;;;;;;6.73;1.70;;;17.20;99.90;;;;;;5025257;28;20281;-79
2022/07/17 08:39:15;;;;;;;4.43;1.20;;;17.20;99.90;;;;;;5036675;28;20330;-77
2022/07/17 08:42:02;;;;;;;3.33;1.27;;;17.20;99.90;;;;;;5025689;28;20191;-77
2022/07/17 08:44:47;;;;;;;3.80;1.20;;;17.20;99.90;;;;;;5016677;28;20214;-76
2022/07/17 08:47:31;;;;;;;3.93;1.37;;;17.30;99.90;;;;;;5023294;28;20207;-77
2022/07/17 08:50:15;;;;;;;3.70;1.43;;;17.30;99.90;;;;;;5017359;28;20187;-76
2022/07/17 08:52:59;;;;;;;7.17;1.60;;;17.40;99.90;;;;;;5028295;28;20178;-77
2022/07/17 08:55:44;;;;;;;3.67;1.20;;;17.40;99.90;;;;;;5028053;28;20214;-77
2022/07/17 08:58:28;;;;;;;6.73;1.60;;;17.50;99.90;;;;;;5014496;28;20268;-75
2022/07/17 09:01:13;;;;;;;2.67;1.40;;;17.70;99.90;;;;;;5023188;28;20264;-76
2022/07/17 09:04:00;;;;;;;4.63;1.50;;;17.70;99.90;;;;;;5016047;28;20222;-75
2022/07/17 09:06:44;;;;;;;3.40;1.50;;;17.80;99.90;;;;;;5031408;28;20703;-77
2022/07/17 09:09:29;;;;;;;8.10;1.60;;;17.90;99.90;;;;;;5020218;28;20199;-77
2022/07/17 09:12:14;;;;;;;7.93;1.30;;;17.90;99.90;;;;;;5020291;28;20187;-76
2022/07/17 09:14:58;;;;;;;3.77;1.43;;;17.90;99.90;;;;;;5025617;28;20195;-76
2022/07/17 09:18:01;;;;;;;4.67;1.60;;;18.00;99.90;;;;;;5022413;28;20222;-76
2022/07/17 09:20:48;;;;;;;5.67;1.60;;;18.10;99.90;;;;;;5031214;28;20175;-75
2022/07/17 09:23:32;;;;;;;3.83;1.40;;;18.10;99.90;;;;;;5019395;28;20188;-76
2022/07/17 09:26:16;;;;;;;4.43;1.20;;;18.20;99.90;;;;;;5019773;28;20262;-77
2022/07/17 09:29:02;;;;;;;3.37;1.00;;;18.20;99.90;;;;;;5031081;28;20194;-76
2022/07/17 09:31:51;;;;;;;6.63;1.30;;;18.30;99.90;;;;;;5024441;28;20246;-77
2022/07/17 09:34:44;;;;;;;5.67;1.27;;;18.30;99.90;;;;;;5028170;28;20227;-77
2022/07/17 09:37:30;;;;;;;2.90;1.03;;;18.30;99.90;;;;;;5038828;28;20757;-77
2022/07/17 09:41:09;;;;;;;3.23;1.20;;;18.30;99.90;;;;;;5028273;28;20199;-76
2022/07/17 09:43:19;;;;;;;6.03;1.30;;;18.30;99.90;;;;;;5018874;28;20196;-78
2022/07/17 09:46:03;;;;;;;5.10;1.37;;;18.40;99.90;;;;;;5025939;28;20242;-77
2022/07/17 09:48:55;;;;;;;5.03;1.57;;;18.30;99.90;;;;;;5025396;28;20174;-77
2022/07/17 09:51:40;;;;;;;3.77;1.10;;;18.40;99.90;;;;;;5035540;28;20183;-76
2022/07/17 09:54:24;;;;;;;5.80;1.05;;;18.50;99.90;;;;;;5044717;28;20188;-76
2022/07/17 09:57:08;;;;;;;3.80;1.23;;;18.60;99.90;;;;;;5033956;28;20214;-76
2022/07/17 10:00:02;;;;;;;3.80;1.05;;;18.60;99.90;;;;;;5031919;28;20242;-76
2022/07/17 10:02:46;;;;;;;8.27;1.50;;;18.60;99.90;;;;;;5027069;28;20199;-76
2022/07/17 10:05:31;;;;;;;4.50;1.13;;;18.60;99.90;;;;;;5032189;28;20249;-75
2022/07/17 10:08:15;;;;;;;4.43;1.27;;;18.70;99.90;;;;;;5022140;28;20175;-76
2022/07/17 10:11:00;;;;;;;3.73;1.30;;;18.80;99.90;;;;;;5033978;28;20183;-75
2022/07/17 10:13:46;;;;;;;6.22;1.55;;;18.90;99.90;;;;;;5029115;28;20207;-76
2022/07/17 10:16:32;;;;;;;3.30;1.33;;;18.90;99.90;;;;;;5026666;28;20249;-75
2022/07/17 10:19:24;;;;;;;6.15;1.58;;;19.00;99.90;;;;;;5028503;28;20203;-75
2022/07/17 10:22:08;;;;;;;5.40;1.17;;;19.00;99.90;;;;;;5027244;28;20199;-75
2022/07/17 10:24:55;;;;;;;5.75;1.60;;;19.10;99.90;;;;;;5032737;28;20192;-76
2022/07/17 10:27:47;;;;;;;4.30;1.20;;;19.20;99.90;;;;;;5039600;28;20282;-75
2022/07/17 10:30:31;;;;;;;6.20;1.27;;;19.20;99.90;;;;;;5020441;28;20184;-76
2022/07/17 10:33:17;;;;;;;2.55;1.20;;;19.20;99.90;;;;;;5027172;28;20689;-76
2022/07/17 10:36:01;;;;;;;5.63;1.38;;;19.30;99.90;;;;;;5020388;28;20267;-77
2022/07/17 10:38:46;;;;;;;3.30;1.00;;;19.30;99.90;;;;;;5032524;28;20239;-76
2022/07/17 10:41:30;;;;;;;3.53;1.30;;;19.40;99.90;;;;;;5029609;28;20281;-75
2022/07/17 10:44:24;;;;;;;6.38;1.23;;;19.50;99.90;;;;;;5027607;28;20175;-76
2022/07/17 10:47:08;;;;;;;4.63;0.95;;;19.50;99.90;;;;;;5034851;28;20219;-75
2022/07/17 10:49:53;;;;;;;3.28;1.08;;;19.50;99.90;;;;;;5034225;28;20595;-75
2022/07/17 10:52:37;;;;;;;2.85;1.10;;;19.60;99.90;;;;;;5028372;28;20663;-75
2022/07/17 10:55:22;;;;;;;4.40;1.00;;;19.60;99.90;;;;;;5020573;28;20192;-76
2022/07/17 10:58:22;;;;;;;2.63;0.80;;;19.60;99.90;;;;;;5032613;28;20257;-75
2022/07/17 11:01:12;;;;;;;3.95;1.35;;;19.60;99.90;;;;;;5023230;28;20196;-75
2022/07/17 11:03:59;;;;;;;3.58;1.35;;;19.70;99.90;;;;;;5025513;28;20215;-75
2022/07/17 11:06:43;;;;;;;5.05;1.15;;;19.70;99.90;;;;;;5025932;28;20255;-75
2022/07/17 11:09:27;;;;;;;4.25;1.23;;;19.80;99.90;;;;;;5024432;28;20203;-75
2022/07/17 11:12:11;;;;;;;3.17;1.48;;;19.90;99.90;;;;;;5028520;28;20309;-74
2022/07/17 11:15:03;;;;;;;3.80;1.20;;;20.00;99.90;;;;;;5027847;28;20310;-76
2022/07/17 11:17:48;;;;;;;7.45;1.58;;;20.10;99.90;;;;;;5025327;28;20228;-76
2022/07/17 11:20:33;;;;;;;4.82;1.13;;;20.20;99.90;;;;;;5031825;28;20251;-75
2022/07/17 11:23:17;;;;;;;3.50;1.02;;;20.20;99.90;;;;;;5028087;28;20214;-75
2022/07/17 11:26:06;;;;;;;4.13;1.30;;;20.30;99.90;;;;;;5023671;28;20251;-76
2022/07/17 11:28:52;;;;;;;4.00;1.23;;;20.40;99.90;;;;;;5026398;28;20327;-76
2022/07/17 11:31:36;;;;;;;2.25;0.98;;;20.50;99.90;;;;;;5030812;28;20187;-76
2022/07/17 11:34:23;;;;;;;3.65;1.40;;;20.60;99.90;;;;;;5025002;28;20199;-75
2022/07/17 11:37:09;;;;;;;5.35;1.33;;;20.60;99.90;;;;;;5034851;28;20798;-77
2022/07/17 11:39:54;;;;;;;4.20;1.10;;;20.50;99.90;;;;;;5029635;28;20188;-77
2022/07/17 11:42:39;;;;;;;3.10;1.10;;;20.40;99.90;;;;;;5025303;28;20606;-77
2022/07/17 11:45:24;;;;;;;2.85;1.10;;;20.50;99.90;;;;;;5023628;28;20195;-76
2022/07/17 11:48:08;;;;;;;7.30;1.25;;;20.60;99.90;;;;;;5022978;28;20196;-76
2022/07/17 11:50:54;;;;;;;4.75;1.10;;;20.60;99.90;;;;;;5027406;28;20236;-76
2022/07/17 11:53:40;;;;;;;4.55;1.10;;;20.60;99.90;;;;;;5022995;28;20195;-75
2022/07/17 11:56:24;;;;;;;2.22;1.00;;;20.70;99.90;;;;;;5015999;28;20251;-75
2022/07/17 11:59:10;;;;;;;2.42;1.00;;;20.80;99.90;;;;;;5023180;28;20595;-77
2022/07/17 12:01:55;;;;;;;3.65;0.95;;;20.90;99.90;;;;;;5022075;28;20199;-77
2022/07/17 12:04:54;;;;;;;3.67;1.42;;;21.00;99.90;;;;;;5032112;28;20257;-75
2022/07/17 12:07:46;;;;;;;5.95;1.25;;;21.10;99.90;;;;;;5027285;28;20272;-77
2022/07/17 12:10:32;;;;;;;4.03;1.60;;;21.10;99.90;;;;;;5028656;28;20704;-77
2022/07/17 12:13:19;;;;;;;2.25;1.10;;;21.00;99.90;;;;;;5020440;28;20183;-76
2022/07/17 12:16:25;;;;;;;4.28;1.25;;;21.10;99.90;;;;;;5024257;28;20282;-76
2022/07/17 12:19:18;;;;;;;5.00;1.23;;;21.10;99.90;;;;;;5026198;28;20206;-77
2022/07/17 12:22:04;;;;;;;3.70;0.98;;;21.20;99.90;;;;;;5025308;28;20187;-76
2022/07/17 12:24:48;;;;;;;3.55;1.15;;;21.30;99.90;;;;;;5023157;28;20318;-75
2022/07/17 12:27:32;;;;;;;4.90;1.20;;;21.30;99.90;;;;;;5024201;28;20250;-76
2022/07/17 12:30:17;;;;;;;4.10;0.90;;;21.40;99.90;;;;;;5021596;28;20226;-76
2022/07/17 12:33:01;;;;;;;7.32;1.15;;;21.40;99.90;;;;;;5029131;28;20191;-76
2022/07/17 12:35:45;;;;;;;2.00;0.82;;;21.50;99.90;;;;;;5021909;28;20286;-76
2022/07/17 12:38:29;;;;;;;4.55;0.80;;;21.60;99.90;;;;;;5026592;28;20702;-77
2022/07/17 12:41:14;;;;;;;5.70;1.40;;;21.70;99.90;;;;;;5026311;28;20175;-76
2022/07/17 12:43:58;;;;;;;6.65;1.30;;;21.70;99.90;;;;;;5020500;28;20234;-76
2022/07/17 12:46:41;;;;;;;7.47;1.40;;;21.70;99.90;;;;;;5031283;28;20724;-76
2022/07/17 12:49:25;;;;;;;3.22;0.90;;;21.70;99.90;;;;;;5023185;28;20195;-77
2022/07/17 12:52:10;;;;;;;3.95;1.15;;;21.60;99.90;;;;;;5030232;28;20226;-76
2022/07/17 12:54:54;;;;;;;1.75;0.80;;;21.60;99.90;;;;;;5031051;28;20222;-76
2022/07/17 12:57:38;;;;;;;2.38;1.10;;;21.70;99.90;;;;;;5030453;28;20315;-76
2022/07/17 13:00:22;;;;;;;3.00;0.90;;;21.80;99.90;;;;;;5013098;28;20267;-77
2022/07/17 13:03:06;;;;;;;2.83;0.80;;;21.90;99.90;;;;;;5026987;28;20203;-75
2022/07/17 13:05:51;;;;;;;3.15;0.95;;;22.00;99.90;;;;;;5017782;28;20710;-77
2022/07/17 13:08:35;;;;;;;2.08;0.80;;;21.90;99.90;;;;;;5023583;28;20187;-77
2022/07/17 13:11:19;;;;;;;2.90;1.02;;;21.90;99.90;;;;;;5024457;28;20223;-76
2022/07/17 13:14:04;;;;;;;4.05;1.02;;;22.00;99.90;;;;;;5019269;28;20191;-77
2022/07/17 13:16:47;;;;;;;5.25;1.00;;;22.00;99.90;;;;;;5023889;28;20289;-76
2022/07/17 13:19:32;;;;;;;2.38;0.88;;;22.10;99.90;;;;;;5022985;28;20277;-76
2022/07/17 13:22:16;;;;;;;5.82;0.80;;;22.20;99.90;;;;;;5025752;28;20196;-76
2022/07/17 13:25:00;;;;;;;3.72;0.90;;;22.20;99.90;;;;;;5024851;28;20249;-77
2022/07/17 13:27:44;;;;;;;3.00;0.90;;;22.20;99.90;;;;;;5021609;28;20296;-76
2022/07/17 13:30:28;;;;;;;1.90;0.80;;;22.30;99.90;;;;;;5018274;28;20254;-75
2022/07/17 13:33:12;;;;;;;7.07;0.90;;;22.30;99.90;;;;;;5012988;28;20195;-75
2022/07/17 13:35:56;;;;;;;3.53;1.15;;;22.30;99.90;;;;;;5027191;28;20219;-76
2022/07/17 13:38:40;;;;;;;5.20;0.85;;;22.50;99.90;;;;;;5024547;28;20587;-77
2022/07/17 13:41:24;;;;;;;3.60;1.08;;;22.60;99.90;;;;;;5022050;28;20284;-77
2022/07/17 13:44:08;;;;;;;2.08;0.80;;;22.60;99.90;;;;;;5028007;28;20286;-75
2022/07/17 13:46:52;;;;;;;3.35;1.00;;;22.60;99.90;;;;;;5022950;28;20265;-75
2022/07/17 13:49:36;;;;;;;4.53;0.75;;;22.60;99.90;;;;;;5018706;28;20191;-75
2022/07/17 13:52:21;;;;;;;3.35;0.80;;;22.70;99.90;;;;;;5031645;28;20691;-75
2022/07/17 13:55:05;;;;;;;1.88;0.88;;;22.80;99.90;;;;;;5029953;28;20265;-74
2022/07/17 13:57:50;;;;;;;4.88;0.90;;;22.90;99.90;;;;;;5016975;28;20234;-76
2022/07/17 14:00:34;;;;;;;2.92;0.93;;;22.90;99.90;;;;;;5030189;28;20215;-75
2022/07/17 14:03:18;;;;;;;4.15;0.82;;;22.90;99.90;;;;;;5029080;28;20235;-75
2022/07/17 14:06:03;;;;;;;4.78;0.80;;;23.00;99.90;;;;;;5026641;28;20219;-75
2022/07/17 14:08:47;;;;;;;3.08;1.00;;;23.00;99.90;;;;;;5031534;28;20192;-76
2022/07/17 14:11:31;;;;;;;2.67;0.70;;;23.10;99.90;;;;;;5024163;28;20195;-76
2022/07/17 14:14:15;;;;;;;3.65;1.10;;;23.20;99.90;;;;;;5028642;28;20191;-76
2022/07/17 14:16:59;;;;;;;4.03;1.30;;;23.20;99.90;;;;;;5041030;28;20331;-75